Eems Servant — PBTI — position and weather

sailwx.info

Track history (hours):
 
Tides and Currents Weather Stations Pressure Air Temp Water Temp Dewpoint Dewpoint Depression Visibility Wind Speed Wind Dir Waves Ship Positions

Eems Servant

Last reported at 2015-Jul-29 20:21 UTC. Time now 2015-Aug-01 16:09 UTC.
Position N 39°19' W 009°51'.

Length 87 m; draft 4.5 m.

Type: Cargo ship. MMSI: 246236000.

Date/timePositionNaut miles runAvg speedWind from/ knotsBaromVisibWave heightAir tempDewpointWater temp
2015-Jul-29 20:21N 39°19' W 009°51'7 8.4
2015-Jul-29 19:30N 39°12' W 009°50'8 8.4
2015-Jul-29 18:33N 39°04' W 009°51'9 8.8
2015-Jul-29 17:32N 38°55' W 009°51'8 8.4
2015-Jul-29 16:33N 38°47' W 009°51'8 8.2
2015-Jul-29 15:33N 38°39' W 009°50'8 8.3
2015-Jul-29 14:33N 38°31' W 009°47'100 8.1
2015-Jul-29 02:12N 36°54' W 009°19'74 7.7
2015-Jul-28 16:33N 36°25' W 007°53'  
2015-Jul-25 14:09N 37°14' W 001°02'810.3
2015-Jul-25 13:23N 37°20' W 000°55'910.3
2015-Jul-25 12:33N 37°25' W 000°47'1210.4
2015-Jul-25 11:22N 37°33' W 000°35'8 9.9
2015-Jul-25 10:33N 37°40' W 000°29'5610.3
2015-Jul-25 05:07N 38°27' E 000°10'74 9.7
2015-Jul-24 21:29N 39°41' E 000°11'9 9.5
2015-Jul-24 20:33N 39°50' E 000°08'8 8.3
2015-Jul-24 19:33N 39°57' E 000°02'106 3.9
2015-Jul-23 16:31N 38°11' E 000°01'9 8.5
2015-Jul-23 15:30N 38°03' W 000°05'26 8.7
2015-Jul-23 12:34N 37°42' W 000°23'8 8.4
2015-Jul-23 11:33N 37°35' W 000°29'8 8.2
2015-Jul-23 10:32N 37°29' W 000°37'8 8.0
2015-Jul-23 09:33N 37°24' W 000°44'  
2015-Jul-20 22:22N 38°01' W 009°55'31 9.8
2015-Jul-20 19:14N 38°31' W 010°04'8 9.6
2015-Jul-20 18:21N 38°39' W 010°06'8 9.6
2015-Jul-20 17:33N 38°46' W 010°07'9 9.4
2015-Jul-20 16:33N 38°56' W 010°06'9 9.1
2015-Jul-20 15:33N 39°05' W 010°07'  
Track history (hours):
 
Tides and Currents Weather Stations Pressure Air Temp Water Temp Dewpoint Dewpoint Depression Visibility Wind Speed Wind Dir Waves Ship Positions

Eems Servant

Last reported at 2015-Jul-29 20:21 UTC. Time now 2015-Aug-01 16:09 UTC.
Position N 39°19' W 009°51'.

Length 87 m; draft 4.5 m.

Type: Cargo ship. MMSI: 246236000.

Date/timePositionNaut miles runAvg speedWind from/ knotsBaromVisibWave heightAir tempDewpointWater temp
2015-Jul-29 20:21N 39°19' W 009°51'7 8.4
2015-Jul-29 19:30N 39°12' W 009°50'8 8.4
2015-Jul-29 18:33N 39°04' W 009°51'9 8.8
2015-Jul-29 17:32N 38°55' W 009°51'8 8.4
2015-Jul-29 16:33N 38°47' W 009°51'8 8.2
2015-Jul-29 15:33N 38°39' W 009°50'8 8.3
2015-Jul-29 14:33N 38°31' W 009°47'100 8.1
2015-Jul-29 02:12N 36°54' W 009°19'74 7.7
2015-Jul-28 16:33N 36°25' W 007°53'  
2015-Jul-25 14:09N 37°14' W 001°02'810.3
2015-Jul-25 13:23N 37°20' W 000°55'910.3
2015-Jul-25 12:33N 37°25' W 000°47'1210.4
2015-Jul-25 11:22N 37°33' W 000°35'8 9.9
2015-Jul-25 10:33N 37°40' W 000°29'5610.3
2015-Jul-25 05:07N 38°27' E 000°10'74 9.7
2015-Jul-24 21:29N 39°41' E 000°11'9 9.5
2015-Jul-24 20:33N 39°50' E 000°08'8 8.3
2015-Jul-24 19:33N 39°57' E 000°02'106 3.9
2015-Jul-23 16:31N 38°11' E 000°01'9 8.5
2015-Jul-23 15:30N 38°03' W 000°05'26 8.7
2015-Jul-23 12:34N 37°42' W 000°23'8 8.4
2015-Jul-23 11:33N 37°35' W 000°29'8 8.2
2015-Jul-23 10:32N 37°29' W 000°37'8 8.0
2015-Jul-23 09:33N 37°24' W 000°44'  
2015-Jul-20 22:22N 38°01' W 009°55'31 9.8
2015-Jul-20 19:14N 38°31' W 010°04'8 9.6
2015-Jul-20 18:21N 38°39' W 010°06'8 9.6
2015-Jul-20 17:33N 38°46' W 010°07'9 9.4
2015-Jul-20 16:33N 38°56' W 010°06'9 9.1
2015-Jul-20 15:33N 39°05' W 010°07'  

Dump ship's entire track history